Time;durP1;ratioP1;P1;durP2;ratioP2;P2;SDS_P1;SDS_P2;PMS_P1;PMS_P2;Temp;Humidity;BMP_temperature;BMP_pressure;BME280_temperature;BME280_humidity;BME280_pressure;Samples;Min_cycle;Max_cycle;Signal;HPM_P1;HPM_P2
2021/05/27 00:02:07;;;;;;;0.30;0.30;;;;;;;9.08;96.24;99860.78;4974483;28;20202;-73
2021/05/27 00:04:34;;;;;;;0.63;0.60;;;;;;;9.09;95.77;99857.72;4974962;28;20189;-73
2021/05/27 00:07:00;;;;;;;1.10;1.10;;;;;;;9.10;96.01;99858.53;4974461;28;20264;-73
2021/05/27 00:09:26;;;;;;;0.30;0.30;;;;;;;9.11;95.58;99874.59;4974609;28;20232;-73
2021/05/27 00:11:52;;;;;;;1.23;1.20;;;;;;;9.13;95.36;99869.63;4974481;28;20336;-72
2021/05/27 00:14:18;;;;;;;0.40;0.40;;;;;;;9.16;94.50;99873.63;4994128;28;20173;-73
2021/05/27 00:16:43;;;;;;;4.37;1.07;;;;;;;9.19;94.66;99865.63;4994279;28;20273;-72
2021/05/27 00:19:08;;;;;;;0.20;0.17;;;;;;;9.18;94.17;99864.03;4993791;28;20213;-73
2021/05/27 00:21:34;;;;;;;0.47;0.40;;;;;;;9.17;94.42;99862.41;4993965;28;20236;-73
2021/05/27 00:23:59;;;;;;;0.57;0.57;;;;;;;9.16;94.30;99866.25;4994106;28;20260;-73
2021/05/27 00:26:24;;;;;;;1.10;1.00;;;;;;;9.13;94.77;99860.66;5002840;28;20622;-72
2021/05/27 00:28:50;;;;;;;0.80;0.80;;;;;;;9.11;95.44;99860.13;4999215;28;20177;-72
2021/05/27 00:31:15;;;;;;;0.30;0.30;;;;;;;9.08;95.65;99866.22;4993853;28;20182;-73
2021/05/27 00:33:40;;;;;;;1.10;0.90;;;;;;;9.04;95.64;99863.34;4993348;28;20209;-73
2021/05/27 00:36:06;;;;;;;1.13;1.03;;;;;;;9.03;95.57;99872.63;4993272;28;20173;-72
2021/05/27 00:38:32;;;;;;;0.23;0.23;;;;;;;9.04;95.41;99878.88;4991951;28;20181;-73
2021/05/27 00:40:57;;;;;;;0.20;0.20;;;;;;;9.05;95.51;99875.03;4993212;28;20177;-73
2021/05/27 00:43:22;;;;;;;0.77;0.77;;;;;;;9.06;95.71;99879.38;4993138;28;20229;-72
2021/05/27 00:45:48;;;;;;;0.50;0.50;;;;;;;9.08;95.17;99871.66;4991798;28;20181;-73
2021/05/27 00:48:57;;;;;;;0.40;0.30;;;;;;;9.10;95.36;99880.34;4992864;28;20676;-73
2021/05/27 00:50:59;;;;;;;0.40;0.40;;;;;;;9.12;94.87;99875.41;4992820;28;20649;-72
2021/05/27 00:53:24;;;;;;;0.40;0.40;;;;;;;9.14;94.45;99879.41;4992849;28;20185;-73
2021/05/27 00:55:50;;;;;;;0.67;0.67;;;;;;;9.18;93.28;99876.84;4992169;28;20226;-73
2021/05/27 00:58:18;;;;;;;0.50;0.50;;;;;;;9.19;93.18;99895.59;4992729;28;20177;-72
2021/05/27 01:00:44;;;;;;;0.07;0.07;;;;;;;9.21;93.02;99890.63;4992746;28;20204;-72
2021/05/27 01:03:09;;;;;;;0.83;0.83;;;;;;;9.17;93.14;99884.22;4991491;28;20216;-72
2021/05/27 01:05:35;;;;;;;0.13;0.13;;;;;;;9.21;92.69;99887.09;4992578;28;20169;-73
2021/05/27 01:08:01;;;;;;;0.17;0.17;;;;;;;9.23;91.93;99885.66;4992522;28;20272;-73
2021/05/27 01:10:27;;;;;;;0.30;0.23;;;;;;;9.22;92.01;99888.72;4992589;28;20268;-73
2021/05/27 01:12:53;;;;;;;0.53;0.53;;;;;;;9.19;92.49;99883.91;4992431;28;20425;-72
2021/05/27 01:17:52;;;;;;;0.33;0.33;;;;;;;9.19;92.56;99900.25;4992521;28;20179;-73
2021/05/27 01:20:18;;;;;;;0.13;0.13;;;;;;;9.19;92.55;99889.34;4990961;28;20447;-73
2021/05/27 01:22:44;;;;;;;0.53;0.53;;;;;;;9.20;92.36;99907.31;4992244;28;20336;-73
2021/05/27 01:25:12;;;;;;;0.83;0.40;;;;;;;9.22;92.16;99913.25;4992190;28;20177;-73
2021/05/27 01:27:38;;;;;;;0.50;0.50;;;;;;;9.24;92.45;99903.63;4992281;28;20181;-72
2021/05/27 01:30:07;;;;;;;0.13;0.13;;;;;;;9.25;91.84;99907.16;4991943;28;20181;-73
2021/05/27 01:32:33;;;;;;;1.00;1.00;;;;;;;9.24;91.98;99903.63;4992078;28;20173;-73
2021/05/27 01:34:59;;;;;;;0.60;0.60;;;;;;;9.24;92.21;99900.09;4991995;28;20232;-73
2021/05/27 01:37:24;;;;;;;0.10;0.10;;;;;;;9.24;92.52;99898.19;4990730;28;20192;-73
2021/05/27 01:39:50;;;;;;;0.47;0.47;;;;;;;9.24;92.17;99900.09;4991858;28;20177;-73
2021/05/27 01:42:15;;;;;;;0.20;0.20;;;;;;;9.25;92.48;99907.16;4991868;28;20215;-73
2021/05/27 01:44:42;;;;;;;0.90;0.90;;;;;;;9.24;92.97;99900.09;4991849;28;20177;-73
2021/05/27 01:47:07;;;;;;;0.53;0.53;;;;;;;9.26;92.73;99911.50;4990528;28;20752;-73
2021/05/27 01:49:33;;;;;;;0.83;0.83;;;;;;;9.26;93.33;99911.50;4991692;28;20180;-73
2021/05/27 01:51:58;;;;;;;0.77;0.77;;;;;;;9.24;93.25;99906.34;4991784;28;20189;-73
2021/05/27 01:54:24;;;;;;;0.10;0.03;;;;;;;9.25;93.73;99915.34;4991087;28;20676;-73
2021/05/27 01:56:49;;;;;;;0.43;0.43;;;;;;;9.20;93.61;99908.13;4972216;28;20193;-73
2021/05/27 01:59:15;;;;;;;0.83;0.83;;;;;;;9.21;93.77;99900.75;4972083;28;20181;-73
2021/05/27 02:01:40;;;;;;;0.60;0.60;;;;;;;9.21;94.08;99907.00;4972178;28;20208;-73
2021/05/27 02:04:05;;;;;;;1.03;1.03;;;;;;;9.24;94.44;99908.28;4972125;28;20181;-73
2021/05/27 02:06:31;;;;;;;1.33;1.23;;;;;;;9.24;94.42;99911.00;4971952;28;20185;-73
2021/05/27 02:09:09;;;;;;;0.50;0.50;;;;;;;9.24;93.94;99911.00;4971244;28;20265;-73
2021/05/27 02:11:44;;;;;;;5.23;0.70;;;;;;;9.23;94.35;99904.75;4972421;28;20186;-73
2021/05/27 02:14:11;;;;;;;0.40;0.40;;;;;;;9.24;94.24;99913.72;4970977;28;20262;-73
2021/05/27 02:16:39;;;;;;;0.70;0.70;;;;;;;9.27;93.93;99904.94;4972409;28;20704;-73
2021/05/27 02:19:05;;;;;;;0.27;0.27;;;;;;;9.27;93.57;99913.13;4972012;28;20182;-73
2021/05/27 02:21:31;;;;;;;0.70;0.70;;;;;;;9.28;93.85;99900.28;4972388;28;20699;-73
2021/05/27 02:23:57;;;;;;;0.20;0.20;;;;;;;9.29;94.23;99905.44;4972096;28;20177;-73
2021/05/27 02:26:23;;;;;;;0.93;0.93;;;;;;;9.26;94.37;99908.78;4971971;28;20229;-73
2021/05/27 02:28:49;;;;;;;1.00;1.00;;;;;;;9.21;95.30;99911.63;4971799;28;20224;-73
2021/05/27 02:31:17;;;;;;;0.20;0.20;;;;;;;9.16;95.99;99906.34;4971826;28;20178;-74
2021/05/27 02:33:42;;;;;;;0.40;0.40;;;;;;;9.14;95.63;99909.38;4970683;28;20660;-73
2021/05/27 02:36:08;;;;;;;0.53;0.53;;;;;;;9.15;95.97;99910.19;4971933;28;20186;-73
2021/05/27 02:38:34;;;;;;;1.00;1.00;;;;;;;9.13;95.31;99905.06;4971720;28;20178;-73
2021/05/27 02:41:00;;;;;;;1.47;0.70;;;;;;;9.15;95.03;99913.72;4971724;28;20174;-73
2021/05/27 02:43:25;;;;;;;0.30;0.30;;;;;;;9.20;94.65;99918.22;4971898;28;20178;-73
2021/05/27 02:45:50;;;;;;;0.70;0.70;;;;;;;9.22;94.46;99905.88;4971874;28;20182;-73
2021/05/27 02:48:16;;;;;;;0.40;0.40;;;;;;;9.25;94.60;99921.59;4971730;28;20201;-73
2021/05/27 02:50:42;;;;;;;0.60;0.57;;;;;;;9.25;93.77;99915.34;4971759;28;20207;-73
2021/05/27 02:53:07;;;;;;;0.50;0.50;;;;;;;9.27;93.51;99924.03;4971641;28;20253;-73
2021/05/27 02:55:32;;;;;;;0.10;0.10;;;;;;;9.27;93.24;99921.31;4971738;28;20177;-73
2021/05/27 02:57:57;;;;;;;0.10;0.10;;;;;;;9.27;92.33;99915.03;4971680;28;20189;-73
2021/05/27 03:00:23;;;;;;;0.07;0.07;;;;;;;9.26;92.51;99925.16;4971747;28;20178;-73
2021/05/27 03:02:48;;;;;;;0.10;0.10;;;;;;;9.26;92.83;99919.69;4971641;28;20284;-73
2021/05/27 03:05:14;;;;;;;0.10;0.10;;;;;;;9.26;92.19;99919.69;4971679;28;20291;-73
2021/05/27 03:07:39;;;;;;;0.37;0.37;;;;;;;9.26;92.27;99922.41;4970361;28;20202;-73
2021/05/27 03:10:05;;;;;;;0.60;0.60;;;;;;;9.24;91.97;99922.72;4971438;28;20209;-73
2021/05/27 03:12:30;;;;;;;0.10;0.10;;;;;;;9.23;92.62;99912.13;4971475;28;20280;-72
2021/05/27 03:14:56;;;;;;;0.17;0.17;;;;;;;9.21;92.41;99926.06;4971587;28;20253;-73
2021/05/27 03:17:21;;;;;;;0.27;0.27;;;;;;;9.19;91.89;99924.78;4971546;28;20178;-72
2021/05/27 03:19:47;;;;;;;0.20;0.20;;;;;;;9.18;92.00;99923.19;4972017;28;20547;-72
2021/05/27 03:22:12;;;;;;;0.73;0.30;;;;;;;9.17;92.50;99925.09;4975126;28;20197;-72
2021/05/27 03:24:37;;;;;;;0.13;0.10;;;;;;;9.18;91.88;99921.25;4973858;28;20707;-72
2021/05/27 03:27:03;;;;;;;0.23;0.23;;;;;;;9.18;92.27;99928.63;4975131;28;20256;-72
2021/05/27 03:29:28;;;;;;;0.10;0.10;;;;;;;9.16;91.46;99925.41;4974764;28;20516;-72
2021/05/27 03:31:53;;;;;;;0.00;0.00;;;;;;;9.16;91.42;99928.94;4975462;28;20181;-72
2021/05/27 03:34:21;;;;;;;0.10;0.10;;;;;;;9.17;91.48;99924.28;4992950;28;20201;-72
2021/05/27 03:36:47;;;;;;;0.10;0.10;;;;;;;9.18;90.93;99928.63;4994477;28;20174;-72
2021/05/27 03:39:12;;;;;;;0.03;0.03;;;;;;;9.12;90.37;99927.97;4994603;28;20200;-72
2021/05/27 03:41:37;;;;;;;0.00;0.00;;;;;;;9.10;90.78;99937.56;4994181;28;20205;-72
2021/05/27 03:44:03;;;;;;;0.00;0.00;;;;;;;9.09;90.46;99934.03;4994236;28;20373;-72
2021/05/27 03:46:28;;;;;;;0.00;0.00;;;;;;;9.07;89.91;99930.81;4994100;28;20173;-72
2021/05/27 03:48:54;;;;;;;0.00;0.00;;;;;;;9.08;90.39;99937.06;4992502;28;20186;-72
2021/05/27 03:51:20;;;;;;;0.00;0.00;;;;;;;9.09;89.43;99939.47;4994136;28;20252;-72
2021/05/27 03:53:45;;;;;;;0.10;0.10;;;;;;;9.11;89.45;99944.63;4994080;28;20169;-72
2021/05/27 03:56:11;;;;;;;0.10;0.10;;;;;;;9.08;88.97;99947.97;4993922;28;20545;-72
2021/05/27 04:01:20;;;;;;;0.00;0.00;;;;;;;8.99;89.50;99939.78;4993913;28;20255;-72
2021/05/27 04:09:13;;;;;;;0.00;0.00;;;;;;;8.95;89.99;99944.22;4993630;28;20183;-72
2021/05/27 04:11:38;;;;;;;0.00;0.00;;;;;;;8.92;89.17;99931.22;4993646;28;20189;-72
2021/05/27 04:14:04;;;;;;;0.00;0.00;;;;;;;8.94;89.79;99942.59;4992425;28;20668;-73
2021/05/27 04:16:29;;;;;;;0.00;0.00;;;;;;;8.90;90.15;99944.34;4993605;28;20177;-72
2021/05/27 04:18:55;;;;;;;0.30;0.30;;;;;;;8.90;90.66;99956.06;4992183;28;20177;-72
2021/05/27 04:21:20;;;;;;;0.23;0.10;;;;;;;8.87;90.88;99953.16;4993478;28;20280;-74
2021/05/27 04:23:45;;;;;;;0.47;0.20;;;;;;;8.83;91.54;99950.25;4992171;28;20200;-72
2021/05/27 04:26:16;;;;;;;0.10;0.10;;;;;;;8.85;91.67;99955.41;4993324;28;20185;-72
2021/05/27 04:28:43;;;;;;;0.40;0.07;;;;;;;8.87;91.95;99962.13;4993308;28;20199;-72
2021/05/27 04:31:12;;;;;;;0.00;0.00;;;;;;;8.90;92.22;99958.78;4991189;28;20219;-72
2021/05/27 04:33:43;;;;;;;0.00;0.00;;;;;;;8.90;92.15;99963.44;4993206;28;20177;-72
2021/05/27 04:36:10;;;;;;;0.20;0.20;;;;;;;8.91;92.13;99970.47;4993154;28;20170;-72
2021/05/27 04:38:36;;;;;;;0.30;0.30;;;;;;;8.90;92.73;99975.13;4993270;28;20209;-72
2021/05/27 04:41:02;;;;;;;0.10;0.10;;;;;;;8.90;92.74;99972.41;4993095;28;20212;-73
2021/05/27 04:43:27;;;;;;;0.10;0.10;;;;;;;8.93;92.76;99981.88;4993071;28;20180;-72
2021/05/27 04:45:53;;;;;;;0.13;0.13;;;;;;;8.97;93.50;99976.59;4992976;28;20256;-72
2021/05/27 04:48:18;;;;;;;0.30;0.20;;;;;;;8.98;93.56;99970.88;4993026;28;20591;-72
2021/05/27 04:50:46;;;;;;;0.13;0.13;;;;;;;8.97;94.17;99980.16;4992946;28;20333;-72
2021/05/27 04:53:12;;;;;;;0.00;0.00;;;;;;;8.95;93.89;99977.72;4992854;28;20188;-72
2021/05/27 04:55:38;;;;;;;0.03;0.03;;;;;;;9.01;94.33;99978.41;4992834;28;20185;-72
2021/05/27 04:58:04;;;;;;;0.03;0.03;;;;;;;9.02;93.81;99979.22;4992729;28;20693;-72
2021/05/27 05:00:30;;;;;;;0.33;0.33;;;;;;;9.07;94.63;99979.06;4992851;28;20196;-72
2021/05/27 05:02:57;;;;;;;0.00;0.00;;;;;;;9.09;94.51;99974.09;4992756;28;20689;-72
2021/05/27 05:05:25;;;;;;;0.17;0.17;;;;;;;9.10;94.33;99978.44;4992697;28;20177;-72
2021/05/27 05:07:50;;;;;;;0.00;0.00;;;;;;;9.15;94.73;99979.13;4992642;28;20173;-74
2021/05/27 05:10:18;;;;;;;0.17;0.17;;;;;;;9.17;94.71;99976.88;4989120;28;20224;-72
2021/05/27 05:12:46;;;;;;;0.20;0.20;;;;;;;9.20;95.07;99980.91;4972935;28;20549;-72
2021/05/27 05:15:14;;;;;;;0.00;0.00;;;;;;;9.18;95.09;99994.03;4973067;28;20170;-73
2021/05/27 05:17:39;;;;;;;0.00;0.00;;;;;;;9.15;95.42;99986.50;4973057;28;20178;-72
2021/05/27 05:20:05;;;;;;;0.20;0.20;;;;;;;9.18;95.51;99988.59;4971752;28;20266;-72
2021/05/27 05:22:30;;;;;;;0.10;0.10;;;;;;;9.21;95.31;100004.31;4972926;28;20587;-76
2021/05/27 05:24:57;;;;;;;0.10;0.10;;;;;;;9.24;95.66;99990.84;4972846;28;20182;-71
2021/05/27 05:27:22;;;;;;;0.20;0.20;;;;;;;9.28;94.91;99988.31;4972786;28;20170;-72
2021/05/27 05:29:47;;;;;;;0.10;0.10;;;;;;;9.41;94.95;99989.34;4972902;28;20178;-71
2021/05/27 05:32:13;;;;;;;0.20;0.07;;;;;;;9.44;94.09;99989.50;4972779;28;20578;-71
2021/05/27 05:34:38;;;;;;;0.30;0.30;;;;;;;9.57;94.28;99981.53;4973262;28;20188;-71
2021/05/27 05:37:04;;;;;;;0.10;0.10;;;;;;;9.81;93.74;99985.44;4973111;28;20174;-72
2021/05/27 05:39:29;;;;;;;0.20;0.20;;;;;;;10.05;92.54;99981.50;4972819;28;20260;-71
2021/05/27 05:41:54;;;;;;;0.10;0.10;;;;;;;10.20;91.62;99988.41;4972423;28;20209;-71
2021/05/27 05:44:19;;;;;;;0.20;0.20;;;;;;;10.01;90.63;99992.25;4972380;28;20206;-72
2021/05/27 05:46:45;;;;;;;0.03;0.03;;;;;;;9.96;91.12;99991.56;4973240;28;20584;-71
2021/05/27 05:49:10;;;;;;;0.00;0.00;;;;;;;9.91;90.45;99994.47;4973036;28;20538;-71
2021/05/27 05:51:36;;;;;;;0.20;0.20;;;;;;;9.91;91.03;99989.00;4973350;28;20206;-71
2021/05/27 05:54:01;;;;;;;0.00;0.00;;;;;;;10.00;91.78;99993.38;4973367;28;20181;-71
2021/05/27 05:56:26;;;;;;;0.30;0.30;;;;;;;10.06;91.89;99996.75;4973333;28;20188;-70
2021/05/27 05:58:52;;;;;;;0.30;0.30;;;;;;;10.10;91.01;99995.78;4973412;28;20226;-71
2021/05/27 06:01:17;;;;;;;0.10;0.10;;;;;;;10.16;90.83;99995.63;4973582;28;20186;-70
2021/05/27 06:03:42;;;;;;;0.10;0.10;;;;;;;10.19;90.18;100003.97;4973309;28;20269;-71
2021/05/27 06:06:10;;;;;;;0.10;0.00;;;;;;;10.12;88.78;99998.97;4971650;28;20185;-71
2021/05/27 06:08:36;;;;;;;0.30;0.30;;;;;;;10.03;88.63;99998.19;4973360;28;20301;-71
2021/05/27 06:11:02;;;;;;;0.57;0.23;;;;;;;9.99;88.22;100001.88;4972806;28;20272;-71
2021/05/27 06:13:27;;;;;;;0.00;0.00;;;;;;;9.96;88.23;100006.03;4973025;28;20284;-71
2021/05/27 06:15:52;;;;;;;0.00;0.00;;;;;;;9.91;88.37;100013.56;4973096;28;20261;-72
2021/05/27 06:18:18;;;;;;;0.10;0.10;;;;;;;9.90;88.31;100012.75;4972964;28;20582;-70
2021/05/27 06:20:43;;;;;;;0.13;0.13;;;;;;;9.91;88.51;100000.72;4973010;28;20182;-71
2021/05/27 06:23:09;;;;;;;0.20;0.20;;;;;;;9.97;89.25;100018.53;4972873;28;20677;-71
2021/05/27 06:25:34;;;;;;;1.27;1.17;;;;;;;10.02;89.16;100015.69;4972971;28;20185;-71
2021/05/27 06:28:00;;;;;;;0.00;0.00;;;;;;;10.06;88.69;100015.84;4973095;28;20220;-72
2021/05/27 06:30:28;;;;;;;0.50;0.50;;;;;;;10.07;89.26;100017.44;4973531;28;20209;-71
2021/05/27 06:32:54;;;;;;;0.00;0.00;;;;;;;10.03;89.94;100020.03;4972125;28;20178;-71
2021/05/27 06:35:20;;;;;;;0.30;0.17;;;;;;;10.01;91.01;100030.44;4973872;28;20681;-71
2021/05/27 06:37:46;;;;;;;1.03;1.03;;;;;;;9.88;93.01;100030.56;4975059;28;20182;-71
2021/05/27 06:40:20;;;;;;;0.10;0.10;;;;;;;9.73;94.06;100034.53;4982084;28;20174;-72
2021/05/27 06:42:46;;;;;;;0.30;0.30;;;;;;;9.64;94.99;100030.97;4978204;28;20222;-72
2021/05/27 06:45:14;;;;;;;0.20;0.20;;;;;;;9.61;95.82;100039.78;4973193;28;20232;-72
2021/05/27 06:47:39;;;;;;;0.10;0.00;;;;;;;9.53;96.02;100035.88;4975627;28;20173;-72
2021/05/27 06:50:06;;;;;;;0.00;0.00;;;;;;;9.50;96.34;100037.31;4991513;28;20543;-72
2021/05/27 06:52:32;;;;;;;0.33;0.27;;;;;;;9.60;97.59;100038.97;4991095;28;20169;-72
2021/05/27 06:54:57;;;;;;;3.93;0.23;;;;;;;9.58;97.06;100040.41;4993864;28;20220;-72
2021/05/27 06:57:23;;;;;;;0.03;0.03;;;;;;;9.56;97.15;100045.38;4995292;28;20220;-72
2021/05/27 06:59:48;;;;;;;0.20;0.20;;;;;;;9.53;97.58;100044.06;4995174;28;20652;-70
2021/05/27 07:02:13;;;;;;;0.00;0.00;;;;;;;9.49;97.73;100052.06;4995106;28;20717;-71
2021/05/27 07:04:39;;;;;;;0.10;0.10;;;;;;;9.50;98.06;100042.78;4994941;28;20264;-71
2021/05/27 07:07:04;;;;;;;0.10;0.10;;;;;;;9.56;98.56;100048.13;4995439;28;20200;-72
2021/05/27 07:09:30;;;;;;;0.23;0.23;;;;;;;9.62;98.01;100057.75;4994576;28;20264;-72
2021/05/27 07:11:56;;;;;;;0.20;0.20;;;;;;;9.64;98.28;100048.13;4994897;28;20289;-75
2021/05/27 07:14:21;;;;;;;0.30;0.27;;;;;;;9.63;98.23;100060.16;4995095;28;20181;-71
2021/05/27 07:16:46;;;;;;;0.00;0.00;;;;;;;9.63;98.55;100062.09;4993469;28;20627;-72
2021/05/27 07:19:12;;;;;;;0.17;0.17;;;;;;;9.58;98.84;100056.78;4993407;28;20215;-72
2021/05/27 07:21:38;;;;;;;0.23;0.23;;;;;;;9.60;99.63;100054.53;4994798;28;20216;-73
2021/05/27 07:24:04;;;;;;;0.20;0.20;;;;;;;9.57;98.82;100058.72;4994628;28;20178;-72
2021/05/27 07:26:30;;;;;;;0.00;0.00;;;;;;;9.60;98.78;100068.97;4994704;28;20173;-72
2021/05/27 07:28:57;;;;;;;0.13;0.13;;;;;;;9.67;98.30;100063.06;4994509;28;20197;-73
2021/05/27 07:31:22;;;;;;;0.10;0.10;;;;;;;9.76;98.16;100063.91;4993242;28;20181;-73
2021/05/27 07:33:47;;;;;;;0.17;0.17;;;;;;;9.84;97.07;100060.44;4994536;28;20687;-73
2021/05/27 07:36:13;;;;;;;0.20;0.20;;;;;;;9.91;96.68;100068.94;4994361;28;20707;-73
2021/05/27 07:38:38;;;;;;;0.03;0.03;;;;;;;9.99;96.05;100061.91;4993030;28;20181;-73
2021/05/27 07:41:06;;;;;;;0.03;0.03;;;;;;;10.03;95.50;100065.63;4994440;28;20261;-73
2021/05/27 07:43:31;;;;;;;0.30;0.20;;;;;;;10.10;95.46;100071.41;4994410;28;20664;-73
2021/05/27 07:45:57;;;;;;;0.20;0.20;;;;;;;10.07;95.04;100072.84;4993707;28;20182;-73
2021/05/27 07:48:22;;;;;;;0.77;0.77;;;;;;;10.04;95.79;100078.13;4993632;28;20264;-73
2021/05/27 07:50:48;;;;;;;0.10;0.03;;;;;;;9.91;95.92;100082.59;4992352;28;20185;-73
2021/05/27 07:53:16;;;;;;;27.17;0.53;;;;;;;9.78;96.08;100086.22;4993604;28;20189;-74
2021/05/27 07:55:42;;;;;;;0.10;0.10;;;;;;;9.65;96.48;100081.66;4987938;28;20174;-73
2021/05/27 07:58:08;;;;;;;0.30;0.20;;;;;;;9.60;97.93;100088.06;4972753;28;20638;-73
2021/05/27 08:00:34;;;;;;;0.03;0.03;;;;;;;9.50;97.68;100094.59;4974119;28;20185;-73
2021/05/27 08:02:59;;;;;;;0.10;0.10;;;;;;;9.45;98.25;100088.47;4973834;28;20213;-73
2021/05/27 08:05:26;;;;;;;0.20;0.20;;;;;;;9.44;98.86;100089.59;4972737;28;20178;-73
2021/05/27 08:07:51;;;;;;;5.97;0.50;;;;;;;9.42;98.81;100100.81;4986014;28;20192;-73
2021/05/27 08:10:18;;;;;;;0.00;0.00;;;;;;;9.41;99.15;100101.94;4991744;28;20566;-72
2021/05/27 08:12:44;;;;;;;0.00;0.00;;;;;;;9.39;98.83;100093.25;4993441;28;20177;-73
2021/05/27 08:15:09;;;;;;;0.10;0.10;;;;;;;9.33;97.66;100094.50;4993278;28;20591;-72
2021/05/27 08:17:35;;;;;;;0.03;0.03;;;;;;;9.32;97.68;100100.25;4993206;28;20702;-73
2021/05/27 08:20:02;;;;;;;0.23;0.23;;;;;;;9.34;98.15;100108.94;4993062;28;20165;-73
2021/05/27 08:22:28;;;;;;;0.10;0.10;;;;;;;9.29;97.89;100107.16;4993418;28;20673;-73
2021/05/27 08:24:54;;;;;;;0.00;0.00;;;;;;;9.27;97.15;100106.66;4992090;28;20204;-72
2021/05/27 08:27:20;;;;;;;0.17;0.17;;;;;;;9.30;97.12;100105.22;4985095;28;20226;-72
2021/05/27 08:29:46;;;;;;;0.17;0.17;;;;;;;9.35;97.00;100103.16;4992212;28;20181;-72
2021/05/27 08:32:12;;;;;;;0.10;0.10;;;;;;;9.44;96.70;100101.31;4993533;28;20588;-72
2021/05/27 08:34:37;;;;;;;0.07;0.07;;;;;;;9.51;96.09;100109.84;4993323;28;20204;-72
2021/05/27 08:37:04;;;;;;;0.00;0.00;;;;;;;9.56;95.52;100108.91;4993502;28;20215;-72
2021/05/27 08:39:29;;;;;;;0.30;0.30;;;;;;;9.60;95.68;100114.53;4993669;28;20177;-72
2021/05/27 08:41:56;;;;;;;0.53;0.20;;;;;;;9.62;95.24;100109.56;5000893;28;20204;-72
2021/05/27 08:44:22;;;;;;;0.13;0.07;;;;;;;9.64;94.37;100129.16;5002212;28;20177;-72
2021/05/27 08:46:48;;;;;;;0.40;0.10;;;;;;;9.75;94.86;100122.31;4995569;28;20239;-71
2021/05/27 08:49:14;;;;;;;0.00;0.00;;;;;;;9.72;94.26;100115.56;4993446;28;20730;-72
2021/05/27 08:51:39;;;;;;;0.10;0.10;;;;;;;9.68;94.02;100124.69;4979618;28;20178;-72
2021/05/27 08:54:05;;;;;;;0.00;0.00;;;;;;;9.72;94.74;100125.69;4973145;28;20543;-72
2021/05/27 08:56:31;;;;;;;0.30;0.23;;;;;;;9.76;95.16;100124.72;4988306;28;20180;-72
2021/05/27 08:58:57;;;;;;;0.00;0.00;;;;;;;9.85;94.84;100130.25;4991203;28;20228;-72
2021/05/27 09:01:23;;;;;;;0.10;0.10;;;;;;;9.93;94.46;100125.94;4992535;28;20622;-72
2021/05/27 09:03:50;;;;;;;0.27;0.00;;;;;;;9.94;95.02;100122.06;4988535;28;20287;-72
2021/05/27 09:06:16;;;;;;;0.87;0.20;;;;;;;9.90;94.30;100121.91;4987101;28;20181;-72
2021/05/27 09:08:42;;;;;;;0.20;0.20;;;;;;;9.92;95.23;100129.78;4990392;28;20208;-73
2021/05/27 09:11:14;;;;;;;0.30;0.30;;;;;;;9.99;95.51;100127.41;4991966;28;20243;-71
2021/05/27 09:13:57;;;;;;;0.13;0.13;;;;;;;10.00;95.40;100138.00;4990395;28;20204;-72
2021/05/27 09:16:22;;;;;;;0.40;0.10;;;;;;;10.00;95.21;100137.22;4991106;28;20617;-72
2021/05/27 09:18:48;;;;;;;3.20;1.90;;;;;;;9.84;94.49;100140.34;4990163;28;20177;-72
2021/05/27 09:21:15;;;;;;;0.00;0.00;;;;;;;9.88;95.65;100148.72;4991851;28;20196;-72
2021/05/27 09:23:52;;;;;;;8.90;1.13;;;;;;;9.83;94.06;100154.28;4992278;28;20531;-73
2021/05/27 09:26:18;;;;;;;0.00;0.00;;;;;;;9.81;94.07;100146.41;4998969;28;20204;-72
2021/05/27 09:28:47;;;;;;;0.10;0.10;;;;;;;9.83;93.81;100154.28;4999810;28;20185;-72
2021/05/27 09:31:16;;;;;;;0.00;0.00;;;;;;;9.75;93.48;100161.31;4995951;28;20232;-72
2021/05/27 09:33:47;;;;;;;0.00;0.00;;;;;;;9.79;93.87;100167.75;4992092;28;20204;-73
2021/05/27 09:36:18;;;;;;;0.63;0.63;;;;;;;9.76;93.50;100157.47;4991813;28;20716;-72
2021/05/27 09:38:54;;;;;;;0.03;0.03;;;;;;;9.81;93.99;100157.31;4991848;28;20328;-72
2021/05/27 09:41:21;;;;;;;0.40;0.40;;;;;;;9.84;93.90;100172.28;4991690;28;20187;-72
2021/05/27 09:43:54;;;;;;;0.00;0.00;;;;;;;9.86;94.21;100174.69;4991856;28;20181;-73
2021/05/27 09:46:23;;;;;;;0.00;0.00;;;;;;;9.82;93.91;100174.50;4991756;28;20208;-72
2021/05/27 09:49:06;;;;;;;0.20;0.20;;;;;;;9.81;93.30;100187.34;4991411;28;20550;-73
2021/05/27 09:51:32;;;;;;;0.20;0.20;;;;;;;9.82;94.27;100174.50;4991575;28;20188;-72
2021/05/27 09:53:59;;;;;;;0.03;0.03;;;;;;;9.84;94.08;100178.56;4990102;28;20628;-73
2021/05/27 09:56:38;;;;;;;0.23;0.20;;;;;;;9.79;95.13;100188.78;4989984;28;20212;-73
2021/05/27 09:59:04;;;;;;;0.40;0.40;;;;;;;9.68;96.00;100181.97;4990191;28;20208;-73
2021/05/27 10:01:30;;;;;;;0.10;0.10;;;;;;;9.66;96.72;100200.56;4991152;28;20201;-72
2021/05/27 10:04:12;;;;;;;0.00;0.00;;;;;;;9.65;96.76;100193.50;4989996;28;20552;-73
2021/05/27 10:06:37;;;;;;;0.10;0.10;;;;;;;9.70;96.86;100182.47;4989800;28;20197;-73
2021/05/27 10:09:05;;;;;;;0.07;0.07;;;;;;;9.70;96.34;100199.66;4987892;28;20181;-73
2021/05/27 10:11:31;;;;;;;0.00;0.00;;;;;;;9.75;96.30;100190.53;4985089;28;20544;-72
2021/05/27 10:13:58;;;;;;;0.00;0.00;;;;;;;9.82;96.78;100196.31;4990925;28;20180;-73
2021/05/27 10:16:24;;;;;;;0.00;0.00;;;;;;;9.86;95.70;100197.34;4991432;28;20174;-72
2021/05/27 10:18:51;;;;;;;0.13;0.13;;;;;;;9.88;95.21;100199.75;4988346;28;20177;-72
2021/05/27 10:21:17;;;;;;;0.30;0.10;;;;;;;9.94;95.65;100199.28;4989915;28;20332;-73
2021/05/27 10:23:43;;;;;;;0.73;0.73;;;;;;;9.91;95.32;100208.09;4989785;28;20757;-73
2021/05/27 10:26:08;;;;;;;0.20;0.20;;;;;;;9.96;96.00;100201.69;4989944;28;20192;-72
2021/05/27 10:28:35;;;;;;;0.00;0.00;;;;;;;10.06;96.81;100202.25;4987817;28;20192;-72
2021/05/27 10:31:01;;;;;;;0.20;0.13;;;;;;;10.14;96.68;100206.97;4989469;28;20255;-73
2021/05/27 10:33:36;;;;;;;0.70;0.70;;;;;;;10.21;96.16;100205.69;4991674;28;20243;-73
2021/05/27 10:36:05;;;;;;;0.20;0.20;;;;;;;10.19;96.39;100213.38;4991303;28;20189;-73
2021/05/27 10:38:40;;;;;;;0.10;0.10;;;;;;;10.21;96.79;100209.25;4991199;28;20169;-72
2021/05/27 10:41:13;;;;;;;0.00;0.00;;;;;;;10.25;97.09;100204.75;4989850;28;20180;-72
2021/05/27 10:46:52;;;;;;;0.13;0.10;;;;;;;10.27;95.69;100205.28;4991420;28;20826;-73
2021/05/27 10:49:44;;;;;;;0.27;0.23;;;;;;;10.28;95.28;100204.16;4991142;28;20543;-73
2021/05/27 10:52:27;;;;;;;0.47;0.47;;;;;;;10.28;94.86;100208.81;4990020;28;20186;-73
2021/05/27 10:54:53;;;;;;;0.40;0.30;;;;;;;10.33;94.72;100216.84;4971832;28;20193;-73
2021/05/27 10:57:40;;;;;;;5.93;0.73;;;;;;;10.34;94.39;100226.66;4970528;28;20233;-73
2021/05/27 11:00:18;;;;;;;0.00;0.00;;;;;;;10.28;93.81;100217.00;4971796;28;20189;-73
2021/05/27 11:02:43;;;;;;;0.50;0.50;;;;;;;10.28;94.35;100225.19;4971634;28;20225;-73
2021/05/27 11:05:22;;;;;;;0.10;0.10;;;;;;;10.30;94.44;100218.28;4971672;28;20204;-72
2021/05/27 11:08:16;;;;;;;0.10;0.10;;;;;;;10.35;94.06;100225.53;4971751;28;20166;-73
2021/05/27 11:10:41;;;;;;;0.00;0.00;;;;;;;10.46;93.05;100226.88;4971578;28;20182;-73
2021/05/27 11:13:07;;;;;;;0.00;0.00;;;;;;;10.65;92.82;100221.94;4971435;28;20193;-73
2021/05/27 11:15:32;;;;;;;0.00;0.00;;;;;;;10.84;90.55;100231.78;4971628;28;20174;-73
2021/05/27 11:18:02;;;;;;;0.00;0.00;;;;;;;10.99;89.25;100218.50;4971533;28;20246;-72
2021/05/27 11:20:29;;;;;;;0.00;0.00;;;;;;;11.16;87.59;100227.84;4971657;28;20170;-73
2021/05/27 11:23:07;;;;;;;0.00;0.00;;;;;;;11.35;87.44;100233.78;4971543;28;20206;-74
2021/05/27 11:25:34;;;;;;;0.00;0.00;;;;;;;11.30;86.95;100234.75;4971925;28;20189;-73
2021/05/27 11:28:00;;;;;;;0.00;0.00;;;;;;;11.44;88.75;100236.53;4971419;28;20185;-73
2021/05/27 11:30:27;;;;;;;0.10;0.10;;;;;;;11.25;88.65;100232.16;4971385;28;20178;-73
2021/05/27 11:32:55;;;;;;;10.57;0.40;;;;;;;11.31;88.67;100241.84;4971399;28;20179;-73
2021/05/27 11:35:23;;;;;;;0.00;0.00;;;;;;;11.48;88.47;100240.22;4971276;28;20680;-74
2021/05/27 11:37:50;;;;;;;0.20;0.20;;;;;;;11.63;87.86;100243.28;4971127;28;20189;-73
2021/05/27 11:40:18;;;;;;;0.10;0.10;;;;;;;11.80;86.60;100239.75;4972531;28;20213;-73
2021/05/27 11:42:53;;;;;;;0.10;0.10;;;;;;;11.86;85.29;100243.94;4975032;28;20209;-73
2021/05/27 11:45:21;;;;;;;0.27;0.27;;;;;;;11.79;86.07;100243.63;4974706;28;20223;-73
2021/05/27 11:50:42;;;;;;;0.10;0.10;;;;;;;11.87;86.73;100242.81;4974555;28;20174;-72
2021/05/27 11:53:09;;;;;;;0.10;0.10;;;;;;;11.98;86.09;100246.00;4973106;28;20654;-72